Time;durP1;ratioP1;P1;durP2;ratioP2;P2;SDS_P1;SDS_P2;PMS_P1;PMS_P2;Temp;Humidity;BMP_temperature;BMP_pressure;BME280_temperature;BME280_humidity;BME280_pressure;Samples;Min_cycle;Max_cycle;Signal;HPM_P1;HPM_P2
2020/12/29 02:08:13;;;;;;;19.57;13.97;;;4.00;99.90;;;;;;5073088;23;20229;-86
2020/12/29 03:35:08;;;;;;;7.97;4.70;;;4.40;99.90;;;;;;5179882;23;20538;-84
2020/12/29 03:38:06;;;;;;;5.40;3.87;;;4.40;99.90;;;;;;5014645;23;20252;-84
2020/12/29 03:59:42;;;;;;;9.13;4.20;;;4.50;99.90;;;;;;5166158;23;20280;-83
2020/12/29 04:02:55;;;;;;;4.63;3.80;;;4.40;99.90;;;;;;4922050;29;20226;-86
2020/12/29 04:51:34;;;;;;;10.50;5.50;;;4.80;99.90;;;;;;4960273;28;20187;-85
2020/12/29 06:02:41;;;;;;;15.90;12.50;;;4.20;99.90;;;;;;4956172;29;20480;-85
2020/12/29 06:05:40;;;;;;;22.73;15.63;;;4.20;99.90;;;;;;5017422;23;20524;-85
2020/12/29 06:11:05;;;;;;;17.07;13.43;;;4.30;99.90;;;;;;4955988;29;20465;-86
2020/12/29 06:13:39;;;;;;;24.53;13.23;;;4.30;99.90;;;;;;4955490;29;20460;-85
2020/12/29 06:16:10;;;;;;;24.43;15.27;;;4.50;99.90;;;;;;4937886;29;20524;-85
2020/12/29 06:18:50;;;;;;;22.10;14.73;;;4.40;99.90;;;;;;4937407;29;20556;-85
2020/12/29 06:21:24;;;;;;;22.13;14.57;;;4.40;99.90;;;;;;4954648;29;20461;-85
2020/12/29 06:23:52;;;;;;;27.55;18.55;;;4.50;99.90;;;;;;4969547;23;20449;-85
2020/12/29 06:26:21;;;;;;;22.77;16.37;;;4.30;99.90;;;;;;5020408;23;20658;-85
2020/12/29 06:28:50;;;;;;;23.07;16.10;;;4.30;99.90;;;;;;4931993;29;20529;-85
2020/12/29 06:31:22;;;;;;;22.17;14.67;;;4.20;99.90;;;;;;4927564;29;20449;-85
2020/12/29 06:33:56;;;;;;;22.63;15.30;;;4.40;99.90;;;;;;4934687;29;20442;-85
2020/12/29 06:36:28;;;;;;;24.43;15.17;;;4.40;99.90;;;;;;4933770;29;20478;-84
2020/12/29 06:38:59;;;;;;;24.20;16.37;;;4.30;99.90;;;;;;4934346;29;20469;-85
2020/12/29 06:41:31;;;;;;;27.47;16.43;;;4.40;99.90;;;;;;4934245;29;20478;-85
2020/12/29 06:43:58;;;;;;;24.50;14.00;;;4.40;99.90;;;;;;4918622;29;20433;-84
2020/12/29 06:46:29;;;;;;;27.57;15.50;;;4.30;99.90;;;;;;4935148;29;20478;-85
2020/12/29 06:49:06;;;;;;;28.80;17.17;;;4.30;99.90;;;;;;4934263;29;20489;-84
2020/12/29 06:51:35;;;;;;;24.23;16.97;;;4.40;99.90;;;;;;4934135;29;20449;-84
2020/12/29 06:54:08;;;;;;;31.17;17.17;;;4.40;99.90;;;;;;4933865;29;20427;-84
2020/12/29 06:56:56;;;;;;;31.73;20.90;;;4.40;99.90;;;;;;4916602;29;20453;-84
2020/12/29 06:59:23;;;;;;;27.27;17.33;;;4.30;99.90;;;;;;4934553;29;20290;-84
2020/12/29 07:01:52;;;;;;;27.67;16.83;;;4.30;99.90;;;;;;4934025;29;20946;-85
2020/12/29 07:04:21;;;;;;;29.63;16.80;;;4.30;99.90;;;;;;4933878;29;20421;-85
2020/12/29 07:06:50;;;;;;;26.67;16.33;;;4.20;99.90;;;;;;4935917;29;20481;-84
2020/12/29 07:09:28;;;;;;;28.47;16.13;;;4.30;99.90;;;;;;4913241;29;20453;-84
2020/12/29 07:12:09;;;;;;;27.30;15.90;;;4.20;99.90;;;;;;4937828;29;20477;-84
2020/12/29 07:14:37;;;;;;;27.87;16.10;;;4.20;99.90;;;;;;4937870;29;20467;-84
2020/12/29 07:17:06;;;;;;;28.30;16.03;;;4.30;99.90;;;;;;4937843;29;20468;-84
2020/12/29 07:19:38;;;;;;;30.87;17.33;;;4.40;99.90;;;;;;4937336;29;20489;-85
2020/12/29 07:22:16;;;;;;;29.17;17.73;;;4.50;99.90;;;;;;4921989;29;20454;-84
2020/12/29 07:24:46;;;;;;;28.43;16.50;;;4.30;99.90;;;;;;4936914;29;20449;-84
2020/12/29 07:27:16;;;;;;;26.57;14.97;;;4.30;99.90;;;;;;4920125;29;20557;-84
2020/12/29 07:29:56;;;;;;;29.60;18.10;;;4.40;99.90;;;;;;4937280;29;20538;-85
2020/12/29 07:32:23;;;;;;;24.70;16.03;;;4.20;99.90;;;;;;4921253;29;20218;-85
2020/12/29 07:34:50;;;;;;;21.80;14.87;;;4.10;99.90;;;;;;4937753;29;20482;-85
2020/12/29 07:37:21;;;;;;;25.83;14.80;;;3.90;99.90;;;;;;4937706;29;20485;-85
2020/12/29 07:39:49;;;;;;;30.87;15.63;;;4.00;99.90;;;;;;4937644;29;20490;-85
2020/12/29 07:42:19;;;;;;;22.27;14.30;;;3.80;99.90;;;;;;4914248;29;20984;-85
2020/12/29 07:44:48;;;;;;;22.90;14.50;;;3.80;99.90;;;;;;4938647;29;20449;-85
2020/12/29 07:47:15;;;;;;;28.70;15.07;;;3.80;99.90;;;;;;4922035;29;20480;-85
2020/12/29 07:49:44;;;;;;;30.50;15.87;;;3.80;99.90;;;;;;4938676;29;20441;-85
2020/12/29 07:52:23;;;;;;;23.63;15.30;;;3.70;99.90;;;;;;4938800;29;21041;-85
2020/12/29 07:55:31;;;;;;;24.17;15.53;;;3.80;99.90;;;;;;4937225;29;20454;-85
2020/12/29 07:58:03;;;;;;;27.27;15.40;;;3.70;99.90;;;;;;4936794;29;20489;-85
2020/12/29 08:00:32;;;;;;;28.33;15.43;;;3.80;99.90;;;;;;4938052;29;20517;-85
2020/12/29 08:03:04;;;;;;;32.13;17.88;;;3.80;99.90;;;;;;4937894;29;20431;-84
2020/12/29 08:05:33;;;;;;;35.07;17.27;;;3.80;99.90;;;;;;4938585;29;20211;-84
2020/12/29 08:08:03;;;;;;;34.23;18.77;;;4.00;99.90;;;;;;4937132;29;20918;-84
2020/12/29 08:10:34;;;;;;;35.10;17.33;;;3.80;99.90;;;;;;4936315;29;20535;-84
2020/12/29 08:13:10;;;;;;;32.20;17.60;;;3.80;99.90;;;;;;4924308;29;20518;-85
2020/12/29 08:24:01;;;;;;;35.43;18.13;;;3.90;99.90;;;;;;5001610;23;20452;-85
2020/12/29 08:26:32;;;;;;;30.40;17.13;;;3.80;99.90;;;;;;4977772;28;20479;-85
2020/12/29 08:29:00;;;;;;;33.57;17.60;;;3.90;99.90;;;;;;4975728;29;20467;-84
2020/12/29 08:31:29;;;;;;;30.00;17.03;;;3.90;99.90;;;;;;4975874;29;20455;-85
2020/12/29 08:34:02;;;;;;;26.87;16.47;;;3.80;99.90;;;;;;4977183;29;20436;-85
2020/12/29 08:36:35;;;;;;;29.50;17.42;;;3.90;99.90;;;;;;4974480;29;20461;-85
2020/12/29 08:39:32;;;;;;;30.43;16.30;;;4.00;99.90;;;;;;4974879;29;20289;-85
2020/12/29 08:42:03;;;;;;;25.03;14.77;;;4.20;99.90;;;;;;4973982;29;20451;-84
2020/12/29 08:44:32;;;;;;;33.40;15.67;;;4.20;99.90;;;;;;4975469;29;20471;-85
2020/12/29 08:47:19;;;;;;;24.87;14.20;;;4.10;99.90;;;;;;4974922;29;20467;-85
2020/12/29 08:49:49;;;;;;;26.27;14.90;;;4.10;99.90;;;;;;4958620;29;20448;-85
2020/12/29 08:52:40;;;;;;;24.93;15.63;;;4.10;99.90;;;;;;4975692;29;20444;-85
2020/12/29 08:55:27;;;;;;;27.23;15.77;;;4.20;99.90;;;;;;4976236;29;20551;-85
2020/12/29 08:57:58;;;;;;;25.40;13.87;;;4.30;99.90;;;;;;4975728;29;20464;-85
2020/12/29 09:00:29;;;;;;;26.40;14.70;;;4.30;99.90;;;;;;4975762;29;20476;-85
2020/12/29 09:03:02;;;;;;;28.80;15.10;;;4.50;99.90;;;;;;4974180;29;20488;-85
2020/12/29 09:05:32;;;;;;;22.17;14.53;;;4.50;99.90;;;;;;4960024;23;20488;-85
2020/12/29 09:08:04;;;;;;;23.80;14.67;;;4.40;99.90;;;;;;4920026;29;20454;-85
2020/12/29 09:10:33;;;;;;;29.20;18.75;;;4.50;99.90;;;;;;4935623;29;20453;-84
2020/12/29 09:13:12;;;;;;;25.37;14.00;;;4.50;99.90;;;;;;4935839;29;20672;-84
2020/12/29 09:15:40;;;;;;;21.50;14.80;;;4.30;99.90;;;;;;4936135;29;20469;-85
2020/12/29 09:18:12;;;;;;;25.50;14.20;;;4.40;99.90;;;;;;4936767;29;20454;-85
2020/12/29 09:20:44;;;;;;;28.70;14.47;;;4.50;99.90;;;;;;4937185;29;20481;-86
2020/12/29 09:23:15;;;;;;;21.67;14.20;;;4.50;99.90;;;;;;4938327;29;20502;-84
2020/12/29 09:25:47;;;;;;;25.67;14.07;;;4.60;99.90;;;;;;4936972;29;20476;-85
2020/12/29 09:28:17;;;;;;;25.37;15.07;;;4.50;99.90;;;;;;4935446;29;20442;-85
2020/12/29 09:30:50;;;;;;;23.63;13.50;;;4.40;99.90;;;;;;4936614;29;20454;-85
2020/12/29 09:33:22;;;;;;;25.30;16.00;;;4.50;99.90;;;;;;4937493;29;20522;-85
2020/12/29 09:35:53;;;;;;;26.63;14.70;;;4.60;99.90;;;;;;4938913;29;20449;-85
2020/12/29 09:41:04;;;;;;;23.07;13.93;;;4.70;99.90;;;;;;4979123;23;20492;-86
2020/12/29 09:43:43;;;;;;;24.10;13.03;;;4.70;99.90;;;;;;4977119;29;20464;-85
2020/12/29 09:48:43;;;;;;;21.60;13.77;;;4.70;99.90;;;;;;4956635;29;20476;-86
2020/12/29 09:51:16;;;;;;;22.70;13.60;;;4.70;99.90;;;;;;4957675;29;20210;-85
2020/12/29 09:53:49;;;;;;;23.10;13.60;;;4.70;99.90;;;;;;4957759;29;20436;-85
2020/12/29 09:56:22;;;;;;;22.73;13.57;;;4.90;99.90;;;;;;4956939;29;20501;-85
2020/12/29 09:58:52;;;;;;;21.83;13.07;;;4.80;99.90;;;;;;4958060;29;20479;-85
2020/12/29 10:38:06;;;;;;;21.37;13.20;;;4.70;99.90;;;;;;5109129;23;20468;-84
2020/12/29 10:51:00;;;;;;;21.80;14.30;;;4.80;99.90;;;;;;4998018;23;20563;-85
2020/12/29 11:05:33;;;;;;;20.00;14.33;;;4.70;99.90;;;;;;5015600;23;20505;-83
2020/12/29 11:08:07;;;;;;;20.23;14.30;;;4.70;99.90;;;;;;5034956;23;20468;-84
2020/12/29 11:13:27;;;;;;;19.60;12.90;;;5.00;99.90;;;;;;4974369;29;20545;-85
2020/12/29 11:15:56;;;;;;;21.50;13.93;;;4.80;99.90;;;;;;4982133;28;20467;-84
2020/12/29 11:24:16;;;;;;;19.70;13.40;;;4.80;99.90;;;;;;4960787;26;20492;-85
2020/12/29 11:26:50;;;;;;;19.73;13.13;;;4.70;99.90;;;;;;5003418;23;20483;-84
2020/12/29 11:29:28;;;;;;;22.03;13.57;;;4.80;99.90;;;;;;4946944;29;20496;-86
2020/12/29 11:32:20;;;;;;;21.37;13.67;;;4.90;99.90;;;;;;4963049;29;20464;-85
2020/12/29 11:34:55;;;;;;;23.43;14.27;;;5.10;99.90;;;;;;4963065;29;20449;-85
2020/12/29 11:41:07;;;;;;;22.07;15.20;;;5.00;99.90;;;;;;5000835;23;20499;-85
2020/12/29 11:43:43;;;;;;;24.10;15.47;;;5.00;99.90;;;;;;4991243;23;20504;-85
2020/12/29 11:46:13;;;;;;;22.93;15.80;;;5.10;99.90;;;;;;4978556;28;20467;-85
2020/12/29 11:48:45;;;;;;;25.07;16.77;;;5.10;99.90;;;;;;4978329;29;20437;-86
2020/12/29 11:59:24;;;;;;;23.87;15.47;;;5.20;99.90;;;;;;5107936;23;20224;-86
2020/12/29 12:02:15;;;;;;;23.87;15.97;;;5.30;99.90;;;;;;4987860;23;20328;-85
2020/12/29 12:13:04;;;;;;;18.17;14.10;;;5.40;99.90;;;;;;4978036;29;20269;-84
2020/12/29 12:15:46;;;;;;;23.00;16.27;;;5.30;99.90;;;;;;4976467;29;20210;-85
2020/12/29 12:18:36;;;;;;;20.23;15.07;;;5.40;99.90;;;;;;4977250;29;20205;-87
2020/12/29 13:19:52;;;;;;;57.77;17.40;;;6.00;99.90;;;;;;5137573;23;20258;-85
2020/12/29 13:28:08;;;;;;;18.97;12.73;;;5.80;99.90;;;;;;4976169;28;20222;-85
2020/12/29 13:30:45;;;;;;;21.33;12.90;;;5.80;99.90;;;;;;4977476;29;20237;-85
2020/12/29 13:33:36;;;;;;;20.02;16.45;;;5.70;99.90;;;;;;4978282;28;20424;-85
2020/12/29 13:36:50;;;;;;;28.93;15.17;;;5.80;99.90;;;;;;4978675;29;20186;-85
2020/12/29 13:39:37;;;;;;;16.13;12.87;;;5.80;99.90;;;;;;4970042;29;20230;-85
2020/12/29 13:42:18;;;;;;;16.00;12.63;;;5.70;99.90;;;;;;4978160;29;20229;-84
2020/12/29 13:45:13;;;;;;;17.03;11.70;;;5.70;99.90;;;;;;4975829;29;20193;-85
2020/12/29 13:47:47;;;;;;;21.17;11.80;;;5.70;99.90;;;;;;4959405;29;20206;-85
2020/12/29 13:50:17;;;;;;;16.37;11.43;;;5.70;99.90;;;;;;4975132;29;20210;-85
2020/12/29 13:53:04;;;;;;;22.80;11.40;;;5.80;99.90;;;;;;4970491;29;20249;-85
2020/12/29 14:31:43;;;;;;;16.93;9.60;;;5.90;99.90;;;;;;4937532;29;20254;-84
2020/12/29 17:37:47;;;;;;;22.43;17.70;;;3.90;99.90;;;;;;4957631;28;20489;-85
2020/12/29 17:40:20;;;;;;;25.10;16.80;;;3.80;99.90;;;;;;4943198;29;20468;-85
2020/12/29 17:45:58;;;;;;;27.23;17.93;;;3.80;99.90;;;;;;4992472;23;20472;-84
2020/12/29 17:48:35;;;;;;;31.87;20.23;;;4.00;99.90;;;;;;4939693;29;20218;-85
2020/12/29 18:09:23;;;;;;;28.43;18.00;;;4.60;99.90;;;;;;4975692;28;20500;-84
2020/12/29 21:07:15;;;;;;;30.63;20.43;;;4.10;99.90;;;;;;5089939;23;20270;-84
2020/12/29 21:10:01;;;;;;;32.63;20.30;;;3.90;99.90;;;;;;4954176;28;20270;-84
2020/12/29 21:12:53;;;;;;;31.17;21.67;;;3.90;99.90;;;;;;4963847;23;20207;-85
2020/12/29 21:18:59;;;;;;;29.80;20.93;;;3.70;99.90;;;;;;4972965;23;20480;-85
2020/12/29 21:21:33;;;;;;;29.20;21.20;;;3.70;99.90;;;;;;4959785;29;20486;-85
2020/12/29 21:24:41;;;;;;;31.60;20.53;;;3.60;99.90;;;;;;4959758;29;20460;-85
2020/12/29 21:27:13;;;;;;;34.93;22.57;;;3.40;99.90;;;;;;4959128;29;20449;-85
2020/12/29 21:30:00;;;;;;;31.33;22.00;;;3.40;99.90;;;;;;4958967;29;20488;-85
2020/12/29 21:35:17;;;;;;;29.07;21.57;;;3.30;99.90;;;;;;4956409;29;20472;-85
2020/12/29 21:41:08;;;;;;;29.83;20.33;;;3.30;99.90;;;;;;4957391;29;20503;-85
2020/12/29 21:43:40;;;;;;;32.47;21.77;;;3.20;99.90;;;;;;4958151;29;20459;-85
2020/12/29 21:46:16;;;;;;;35.73;22.27;;;3.30;99.90;;;;;;4957670;29;20443;-85
2020/12/29 21:48:50;;;;;;;30.53;23.83;;;3.30;99.90;;;;;;4958100;29;20460;-85
2020/12/29 21:54:14;;;;;;;30.47;20.13;;;3.20;99.90;;;;;;4957970;29;20488;-85
2020/12/29 21:56:51;;;;;;;28.87;19.83;;;3.50;99.90;;;;;;4941259;29;20440;-85
2020/12/29 21:59:21;;;;;;;34.60;20.50;;;3.80;99.90;;;;;;4980213;23;20492;-85
2020/12/29 22:01:56;;;;;;;32.13;18.70;;;3.90;99.90;;;;;;4940613;29;20448;-85
2020/12/29 22:10:08;;;;;;;28.70;19.67;;;4.20;99.90;;;;;;856001;23;20825;-81
2020/12/29 22:12:50;;;;;;;34.93;19.97;;;4.20;99.90;;;;;;4970120;29;20559;-85
2020/12/29 22:15:22;;;;;;;34.80;20.10;;;4.30;99.90;;;;;;4975681;29;20456;-85
2020/12/29 22:17:50;;;;;;;35.17;20.73;;;4.40;99.90;;;;;;4973844;29;20448;-85
2020/12/29 22:20:33;;;;;;;33.37;20.60;;;4.40;99.90;;;;;;4974398;29;20480;-85
2020/12/29 22:23:03;;;;;;;38.00;20.67;;;4.30;99.90;;;;;;4975110;29;20497;-85
2020/12/29 22:29:31;;;;;;;30.03;20.63;;;4.10;99.90;;;;;;5179284;23;20507;-86
2020/12/29 22:32:18;;;;;;;38.67;21.43;;;4.20;99.90;;;;;;4964224;23;20487;-86
2020/12/29 22:34:49;;;;;;;35.00;19.77;;;4.20;99.90;;;;;;4938874;29;20461;-86
2020/12/29 22:37:28;;;;;;;31.50;21.30;;;4.10;99.90;;;;;;4923792;29;20473;-86
2020/12/29 22:40:22;;;;;;;31.90;20.80;;;4.10;99.90;;;;;;4939385;29;20473;-86
2020/12/29 22:43:21;;;;;;;32.00;21.35;;;4.00;99.90;;;;;;5298341;23;21690;31
2020/12/29 22:49:20;;;;;;;35.07;20.50;;;3.90;99.90;;;;;;5014371;23;20479;-86
2020/12/29 23:00:55;;;;;;;33.40;20.50;;;4.10;99.90;;;;;;4976710;28;20490;-86
2020/12/29 23:04:10;;;;;;;31.30;20.77;;;4.10;99.90;;;;;;4977015;29;20456;-86
2020/12/29 23:07:14;;;;;;;29.30;19.67;;;4.20;99.90;;;;;;4977052;28;20459;-86
2020/12/29 23:10:22;;;;;;;32.60;19.70;;;4.00;99.90;;;;;;4978441;29;20487;-86
2020/12/29 23:13:31;;;;;;;29.63;19.70;;;3.90;99.90;;;;;;4977712;28;20495;-86
2020/12/29 23:16:10;;;;;;;35.77;20.40;;;3.90;99.90;;;;;;4976088;29;20512;-86
2020/12/29 23:19:04;;;;;;;30.73;18.73;;;3.90;99.90;;;;;;4967296;28;20818;-86
2020/12/29 23:21:51;;;;;;;33.47;19.43;;;3.70;99.90;;;;;;4960878;29;20479;-86
